Time;durP1;ratioP1;P1;durP2;ratioP2;P2;SDS_P1;SDS_P2;PMS_P1;PMS_P2;Temp;Humidity;BMP_temperature;BMP_pressure;BME280_temperature;BME280_humidity;BME280_pressure;Samples;Min_cycle;Max_cycle;Signal;HPM_P1;HPM_P2
2022/07/31 00:00:07;;;;;;;;;;;;;;;;;;351597;28;975;-64
2022/07/31 00:00:18;;;;;;;;;;;;;;;;;;351557;28;987;-63
2022/07/31 00:00:28;;;;;;;;;;;;;;;;;;351574;28;909;-64
2022/07/31 00:00:39;;;;;;;;;;;;;;;;;;351555;28;996;-63
2022/07/31 00:00:49;;;;;;;;;;;;;;;;;;351464;28;1162;-64
2022/07/31 00:00:59;;;;;;;;;;;;;;;;;;351530;28;889;-64
2022/07/31 00:01:09;;;;;;;;;;;;;;;;;;351591;28;849;-64
2022/07/31 00:01:19;;;;;;;;;;;;;;;;;;351578;28;972;-64
2022/07/31 00:01:30;;;;;;;;;;;;;;;;;;351544;28;983;-63
2022/07/31 00:01:40;;;;;;;;;;;;;;;;;;351487;28;968;-63
2022/07/31 00:01:53;;;;;;;;;;;;;;;;;;351559;28;904;-63
2022/07/31 00:02:04;;;;;;;;;;;;;;;;;;351608;28;932;-64
2022/07/31 00:02:14;;;;;;;;;;;;;;;;;;351521;28;1000;-64
2022/07/31 00:02:24;;;;;;;;;;;;;;;;;;351565;28;940;-63
2022/07/31 00:02:35;;;;;;;;;;;;;;;;;;351517;28;1032;-63
2022/07/31 00:02:45;;;;;;;;;;;;;;;;;;351561;28;952;-63
2022/07/31 00:02:56;;;;;;;;;;;;;;;;;;351567;28;955;-64
2022/07/31 00:03:06;;;;;;;;;;;;;;;;;;351615;28;872;-63
2022/07/31 00:03:17;;;;;;;;;;;;;;;;;;351604;28;932;-64
2022/07/31 00:03:27;;;;;;;;;;;;;;;;;;351546;28;782;-64
2022/07/31 00:03:37;;;;;;;;;;;;;;;;;;351527;28;1019;-64
2022/07/31 00:03:47;;;;;;;;;;;;;;;;;;351553;28;940;-63
2022/07/31 00:03:57;;;;;;;;;;;;;;;;;;351494;28;909;-64
2022/07/31 00:04:08;;;;;;;;;;;;;;;;;;351603;28;908;-63
2022/07/31 00:04:18;;;;;;;;;;;;;;;;;;351554;28;885;-63
2022/07/31 00:04:28;;;;;;;;;;;;;;;;;;351520;28;901;-64
2022/07/31 00:04:39;;;;;;;;;;;;;;;;;;351570;28;964;-63
2022/07/31 00:04:49;;;;;;;;;;;;;;;;;;351585;28;838;-63
2022/07/31 00:04:59;;;;;;;;;;;;;;;;;;351496;28;1300;-63
2022/07/31 00:05:09;;;;;;;;;;;;;;;;;;351601;28;865;-63
2022/07/31 00:05:20;;;;;;;;;;;;;;;;;;351572;28;944;-63
2022/07/31 00:05:30;;;;;;;;;;;;;;;;;;351595;28;837;-64
2022/07/31 00:05:40;;;;;;;;;;;;;;;;;;351592;28;905;-63
2022/07/31 00:05:50;;;;;;;;;;;;;;;;;;351553;28;912;-63
2022/07/31 00:06:01;;;;;;;;;;;;;;;;;;351520;28;1059;-64
2022/07/31 00:06:11;;;;;;;;;;;;;;;;;;351562;28;810;-64
2022/07/31 00:06:21;;;;;;;;;;;;;;;;;;350675;28;1318;-64
2022/07/31 00:06:31;;;;;;;;;;;;;;;;;;350247;28;1012;-64
2022/07/31 00:06:43;;;;;;;;;;;;;;;;;;350128;28;984;-64
2022/07/31 00:06:53;;;;;;;;;;;;;;;;;;350171;28;948;-63
2022/07/31 00:07:03;;;;;;;;;;;;;;;;;;350185;28;909;-63
2022/07/31 00:07:13;;;;;;;;;;;;;;;;;;350143;28;833;-64
2022/07/31 00:07:23;;;;;;;;;;;;;;;;;;350495;28;1523;-63
2022/07/31 00:07:34;;;;;;;;;;;;;;;;;;351441;28;1526;-64
2022/07/31 00:07:44;;;;;;;;;;;;;;;;;;351624;28;828;-63
2022/07/31 00:07:54;;;;;;;;;;;;;;;;;;351496;28;972;-63
2022/07/31 00:08:04;;;;;;;;;;;;;;;;;;351538;28;912;-63
2022/07/31 00:08:14;;;;;;;;;;;;;;;;;;351602;28;1003;-64
2022/07/31 00:08:25;;;;;;;;;;;;;;;;;;351562;28;928;-63
2022/07/31 00:08:35;;;;;;;;;;;;;;;;;;351573;28;864;-63
2022/07/31 00:08:45;;;;;;;;;;;;;;;;;;351526;28;936;-63
2022/07/31 00:08:55;;;;;;;;;;;;;;;;;;351586;28;920;-64
2022/07/31 00:09:05;;;;;;;;;;;;;;;;;;351588;28;986;-64
2022/07/31 00:09:16;;;;;;;;;;;;;;;;;;351553;28;840;-64
2022/07/31 00:09:28;;;;;;;;;;;;;;;;;;351557;28;912;-63
2022/07/31 00:09:38;;;;;;;;;;;;;;;;;;351496;28;927;-64
2022/07/31 00:09:48;;;;;;;;;;;;;;;;;;351539;28;1047;-64
2022/07/31 00:09:59;;;;;;;;;;;;;;;;;;351530;28;1003;-63
2022/07/31 00:10:09;;;;;;;;;;;;;;;;;;351557;28;936;-63
2022/07/31 00:10:19;;;;;;;;;;;;;;;;;;351567;28;975;-63
2022/07/31 00:10:29;;;;;;;;;;;;;;;;;;351547;28;916;-64
2022/07/31 00:10:39;;;;;;;;;;;;;;;;;;351576;28;944;-64
2022/07/31 00:10:50;;;;;;;;;;;;;;;;;;351575;28;911;-63
2022/07/31 00:11:00;;;;;;;;;;;;;;;;;;351549;28;845;-63
2022/07/31 00:11:10;;;;;;;;;;;;;;;;;;351499;28;1015;-64
2022/07/31 00:11:20;;;;;;;;;;;;;;;;;;350413;28;2057;-63
2022/07/31 00:11:31;;;;;;;;;;;;;;;;;;351782;28;856;-63
2022/07/31 00:11:42;;;;;;;;;;;;;;;;;;352954;28;950;-64
2022/07/31 00:11:52;;;;;;;;;;;;;;;;;;352967;28;995;-63
2022/07/31 00:12:03;;;;;;;;;;;;;;;;;;352902;28;967;-64
2022/07/31 00:12:13;;;;;;;;;;;;;;;;;;353000;28;786;-64
2022/07/31 00:12:23;;;;;;;;;;;;;;;;;;353003;28;987;-63
2022/07/31 00:12:33;;;;;;;;;;;;;;;;;;352986;28;837;-64
2022/07/31 00:12:44;;;;;;;;;;;;;;;;;;352954;28;821;-63
2022/07/31 00:12:54;;;;;;;;;;;;;;;;;;352907;28;1071;-64
2022/07/31 00:13:04;;;;;;;;;;;;;;;;;;352977;28;1030;-63
2022/07/31 00:13:14;;;;;;;;;;;;;;;;;;352994;28;920;-63
2022/07/31 00:13:24;;;;;;;;;;;;;;;;;;351680;28;1320;-63
2022/07/31 00:13:35;;;;;;;;;;;;;;;;;;350448;28;805;-63
2022/07/31 00:13:45;;;;;;;;;;;;;;;;;;350165;28;1001;-64
2022/07/31 00:13:55;;;;;;;;;;;;;;;;;;350181;28;1011;-63
2022/07/31 00:14:05;;;;;;;;;;;;;;;;;;350152;28;916;-63
2022/07/31 00:14:15;;;;;;;;;;;;;;;;;;350120;28;912;-63
2022/07/31 00:14:26;;;;;;;;;;;;;;;;;;350221;28;920;-63
2022/07/31 00:14:36;;;;;;;;;;;;;;;;;;350086;28;1122;-64
2022/07/31 00:14:46;;;;;;;;;;;;;;;;;;350100;28;959;-64
2022/07/31 00:14:56;;;;;;;;;;;;;;;;;;350147;28;944;-63
2022/07/31 00:15:08;;;;;;;;;;;;;;;;;;350195;28;888;-64
2022/07/31 00:15:19;;;;;;;;;;;;;;;;;;350188;28;944;-63
2022/07/31 00:15:29;;;;;;;;;;;;;;;;;;350098;28;995;-64
2022/07/31 00:15:39;;;;;;;;;;;;;;;;;;350134;28;971;-63
2022/07/31 00:15:49;;;;;;;;;;;;;;;;;;350164;28;1011;-64
2022/07/31 00:15:59;;;;;;;;;;;;;;;;;;350103;28;1914;-64
2022/07/31 00:16:09;;;;;;;;;;;;;;;;;;350168;28;943;-64
2022/07/31 00:16:20;;;;;;;;;;;;;;;;;;350040;28;833;-64
2022/07/31 00:16:30;;;;;;;;;;;;;;;;;;350899;28;1488;-64
2022/07/31 00:16:40;;;;;;;;;;;;;;;;;;351427;28;1693;-63
2022/07/31 00:16:50;;;;;;;;;;;;;;;;;;351527;28;979;-64
2022/07/31 00:17:01;;;;;;;;;;;;;;;;;;351515;28;1082;-64
2022/07/31 00:17:11;;;;;;;;;;;;;;;;;;351522;28;912;-64
2022/07/31 00:17:21;;;;;;;;;;;;;;;;;;351594;28;917;-64
2022/07/31 00:17:31;;;;;;;;;;;;;;;;;;351493;28;1241;-63
2022/07/31 00:17:42;;;;;;;;;;;;;;;;;;351553;28;912;-64
2022/07/31 00:17:52;;;;;;;;;;;;;;;;;;351595;28;960;-63
2022/07/31 00:18:02;;;;;;;;;;;;;;;;;;351515;28;932;-64
2022/07/31 00:18:12;;;;;;;;;;;;;;;;;;351541;28;928;-64
2022/07/31 00:18:23;;;;;;;;;;;;;;;;;;351494;28;944;-64
2022/07/31 00:18:34;;;;;;;;;;;;;;;;;;351510;28;975;-63
2022/07/31 00:18:44;;;;;;;;;;;;;;;;;;351516;28;990;-63
2022/07/31 00:18:55;;;;;;;;;;;;;;;;;;351493;28;960;-63
2022/07/31 00:19:05;;;;;;;;;;;;;;;;;;351525;28;1330;-64
2022/07/31 00:19:16;;;;;;;;;;;;;;;;;;351606;28;857;-63
2022/07/31 00:19:26;;;;;;;;;;;;;;;;;;351582;28;908;-64
2022/07/31 00:19:36;;;;;;;;;;;;;;;;;;351559;28;905;-64
2022/07/31 00:19:47;;;;;;;;;;;;;;;;;;351500;28;927;-64
2022/07/31 00:19:57;;;;;;;;;;;;;;;;;;351486;28;1075;-63
2022/07/31 00:20:08;;;;;;;;;;;;;;;;;;351559;28;908;-63
2022/07/31 00:20:19;;;;;;;;;;;;;;;;;;351546;28;959;-63
2022/07/31 00:20:30;;;;;;;;;;;;;;;;;;351505;28;912;-63
2022/07/31 00:20:40;;;;;;;;;;;;;;;;;;351534;28;936;-64
2022/07/31 00:20:50;;;;;;;;;;;;;;;;;;351501;28;956;-64
2022/07/31 00:21:01;;;;;;;;;;;;;;;;;;351576;28;881;-64
2022/07/31 00:21:12;;;;;;;;;;;;;;;;;;351561;28;900;-63
2022/07/31 00:21:23;;;;;;;;;;;;;;;;;;351608;28;786;-63
2022/07/31 00:21:33;;;;;;;;;;;;;;;;;;351355;28;1080;-63
2022/07/31 00:21:43;;;;;;;;;;;;;;;;;;351558;28;960;-64
2022/07/31 00:21:54;;;;;;;;;;;;;;;;;;351527;28;924;-63
2022/07/31 00:22:04;;;;;;;;;;;;;;;;;;351525;28;1002;-64
2022/07/31 00:22:14;;;;;;;;;;;;;;;;;;351537;28;987;-63
2022/07/31 00:22:24;;;;;;;;;;;;;;;;;;351535;28;812;-64
2022/07/31 00:22:34;;;;;;;;;;;;;;;;;;351471;28;916;-64
2022/07/31 00:22:46;;;;;;;;;;;;;;;;;;351562;28;987;-63
2022/07/31 00:22:56;;;;;;;;;;;;;;;;;;351502;28;1003;-64
2022/07/31 00:23:06;;;;;;;;;;;;;;;;;;351564;28;944;-63
2022/07/31 00:23:16;;;;;;;;;;;;;;;;;;351501;28;995;-64
2022/07/31 00:23:27;;;;;;;;;;;;;;;;;;351547;28;887;-64
2022/07/31 00:23:37;;;;;;;;;;;;;;;;;;351516;28;924;-63
2022/07/31 00:23:47;;;;;;;;;;;;;;;;;;351492;28;999;-64
2022/07/31 00:23:58;;;;;;;;;;;;;;;;;;351563;28;952;-63
2022/07/31 00:24:08;;;;;;;;;;;;;;;;;;351546;28;1058;-63
2022/07/31 00:24:18;;;;;;;;;;;;;;;;;;351489;28;971;-64
2022/07/31 00:24:28;;;;;;;;;;;;;;;;;;351591;28;905;-63
2022/07/31 00:24:39;;;;;;;;;;;;;;;;;;351503;28;916;-63
2022/07/31 00:24:49;;;;;;;;;;;;;;;;;;351463;28;1215;-64
2022/07/31 00:24:59;;;;;;;;;;;;;;;;;;351562;28;828;-64
2022/07/31 00:25:10;;;;;;;;;;;;;;;;;;351541;28;1010;-63
2022/07/31 00:25:20;;;;;;;;;;;;;;;;;;351516;28;912;-63
2022/07/31 00:25:30;;;;;;;;;;;;;;;;;;351534;28;924;-63
2022/07/31 00:25:41;;;;;;;;;;;;;;;;;;351478;28;1358;-64
2022/07/31 00:25:51;;;;;;;;;;;;;;;;;;351518;28;991;-63
2022/07/31 00:26:01;;;;;;;;;;;;;;;;;;351553;28;865;-63
2022/07/31 00:26:11;;;;;;;;;;;;;;;;;;351544;28;854;-64
2022/07/31 00:26:21;;;;;;;;;;;;;;;;;;351477;28;905;-64
2022/07/31 00:26:32;;;;;;;;;;;;;;;;;;351547;28;921;-64
2022/07/31 00:26:42;;;;;;;;;;;;;;;;;;351488;28;968;-64
2022/07/31 00:26:52;;;;;;;;;;;;;;;;;;351466;28;952;-64
2022/07/31 00:27:03;;;;;;;;;;;;;;;;;;351585;28;849;-64
2022/07/31 00:27:13;;;;;;;;;;;;;;;;;;351581;28;889;-64
2022/07/31 00:27:23;;;;;;;;;;;;;;;;;;351474;28;959;-64
2022/07/31 00:27:33;;;;;;;;;;;;;;;;;;351566;28;897;-64
2022/07/31 00:27:44;;;;;;;;;;;;;;;;;;351502;28;944;-64
2022/07/31 00:27:54;;;;;;;;;;;;;;;;;;351494;28;920;-64
2022/07/31 00:28:05;;;;;;;;;;;;;;;;;;351554;28;833;-63
2022/07/31 00:28:15;;;;;;;;;;;;;;;;;;350567;28;1394;-64
2022/07/31 00:28:26;;;;;;;;;;;;;;;;;;351372;28;1043;-64
2022/07/31 00:28:36;;;;;;;;;;;;;;;;;;351500;28;932;-64
2022/07/31 00:28:47;;;;;;;;;;;;;;;;;;351511;28;987;-64
2022/07/31 00:28:57;;;;;;;;;;;;;;;;;;351545;28;1028;-64
2022/07/31 00:29:07;;;;;;;;;;;;;;;;;;351541;28;853;-64
2022/07/31 00:29:17;;;;;;;;;;;;;;;;;;351516;28;932;-64
2022/07/31 00:29:27;;;;;;;;;;;;;;;;;;351541;28;904;-64
2022/07/31 00:29:38;;;;;;;;;;;;;;;;;;351538;27;873;-63
2022/07/31 00:29:49;;;;;;;;;;;;;;;;;;351554;28;955;-63
2022/07/31 00:29:59;;;;;;;;;;;;;;;;;;351479;28;1012;-63
2022/07/31 00:30:11;;;;;;;;;;;;;;;;;;351530;28;920;-63
2022/07/31 00:30:22;;;;;;;;;;;;;;;;;;351518;28;952;-64
2022/07/31 00:30:32;;;;;;;;;;;;;;;;;;351558;28;960;-63
2022/07/31 00:30:42;;;;;;;;;;;;;;;;;;351495;28;988;-64
2022/07/31 00:30:52;;;;;;;;;;;;;;;;;;351494;28;817;-64
2022/07/31 00:31:02;;;;;;;;;;;;;;;;;;351506;28;904;-64
2022/07/31 00:31:13;;;;;;;;;;;;;;;;;;351568;28;888;-64
2022/07/31 00:31:23;;;;;;;;;;;;;;;;;;351522;28;964;-64
2022/07/31 00:31:33;;;;;;;;;;;;;;;;;;351531;28;960;-64
2022/07/31 00:31:43;;;;;;;;;;;;;;;;;;351528;28;897;-64
2022/07/31 00:31:53;;;;;;;;;;;;;;;;;;351533;28;971;-64
2022/07/31 00:32:04;;;;;;;;;;;;;;;;;;351421;28;1055;-63
2022/07/31 00:32:14;;;;;;;;;;;;;;;;;;351464;28;1272;-64
2022/07/31 00:32:25;;;;;;;;;;;;;;;;;;351580;28;916;-63
2022/07/31 00:32:35;;;;;;;;;;;;;;;;;;351577;28;758;-64
2022/07/31 00:32:45;;;;;;;;;;;;;;;;;;351511;28;963;-64
2022/07/31 00:32:55;;;;;;;;;;;;;;;;;;351504;28;837;-63
2022/07/31 00:33:06;;;;;;;;;;;;;;;;;;351508;28;920;-63
2022/07/31 00:33:16;;;;;;;;;;;;;;;;;;351541;28;912;-63
2022/07/31 00:33:26;;;;;;;;;;;;;;;;;;351496;28;1000;-63
2022/07/31 00:33:36;;;;;;;;;;;;;;;;;;351534;28;947;-63
2022/07/31 00:33:46;;;;;;;;;;;;;;;;;;351540;28;955;-64
2022/07/31 00:33:57;;;;;;;;;;;;;;;;;;351569;28;868;-64
2022/07/31 00:34:07;;;;;;;;;;;;;;;;;;351491;28;922;-63
2022/07/31 00:34:17;;;;;;;;;;;;;;;;;;351527;28;939;-64
2022/07/31 00:34:27;;;;;;;;;;;;;;;;;;351546;28;792;-64
2022/07/31 00:34:37;;;;;;;;;;;;;;;;;;351532;28;963;-63
2022/07/31 00:34:47;;;;;;;;;;;;;;;;;;351493;28;920;-64
2022/07/31 00:34:58;;;;;;;;;;;;;;;;;;351580;28;754;-64
2022/07/31 00:35:09;;;;;;;;;;;;;;;;;;351553;28;924;-63
2022/07/31 00:35:19;;;;;;;;;;;;;;;;;;351546;28;1020;-64
2022/07/31 00:35:30;;;;;;;;;;;;;;;;;;351537;28;777;-64
2022/07/31 00:35:40;;;;;;;;;;;;;;;;;;351572;28;805;-64
2022/07/31 00:35:50;;;;;;;;;;;;;;;;;;351537;28;983;-63
2022/07/31 00:36:00;;;;;;;;;;;;;;;;;;351474;28;1981;-64
2022/07/31 00:36:10;;;;;;;;;;;;;;;;;;351434;28;860;-64
2022/07/31 00:36:20;;;;;;;;;;;;;;;;;;351520;28;934;-63
2022/07/31 00:36:31;;;;;;;;;;;;;;;;;;351558;28;833;-63
2022/07/31 00:36:41;;;;;;;;;;;;;;;;;;351556;28;983;-63
2022/07/31 00:36:51;;;;;;;;;;;;;;;;;;351475;28;1038;-63
2022/07/31 00:37:02;;;;;;;;;;;;;;;;;;351511;28;976;-64
2022/07/31 00:37:12;;;;;;;;;;;;;;;;;;351485;28;928;-63
2022/07/31 00:37:22;;;;;;;;;;;;;;;;;;351509;28;790;-64
2022/07/31 00:37:34;;;;;;;;;;;;;;;;;;351493;28;974;-64
2022/07/31 00:37:44;;;;;;;;;;;;;;;;;;351542;28;964;-63
2022/07/31 00:37:54;;;;;;;;;;;;;;;;;;351498;28;935;-64
2022/07/31 00:38:05;;;;;;;;;;;;;;;;;;351507;28;996;-64
2022/07/31 00:38:15;;;;;;;;;;;;;;;;;;351462;28;916;-64
2022/07/31 00:38:25;;;;;;;;;;;;;;;;;;351532;28;972;-64
2022/07/31 00:38:35;;;;;;;;;;;;;;;;;;351544;28;945;-63
2022/07/31 00:38:45;;;;;;;;;;;;;;;;;;351534;28;1011;-64
2022/07/31 00:38:57;;;;;;;;;;;;;;;;;;351478;28;932;-64
2022/07/31 00:39:09;;;;;;;;;;;;;;;;;;351445;28;896;-64
2022/07/31 00:39:19;;;;;;;;;;;;;;;;;;351506;28;987;-63
2022/07/31 00:39:29;;;;;;;;;;;;;;;;;;351507;28;774;-64
2022/07/31 00:39:40;;;;;;;;;;;;;;;;;;351517;28;932;-64
2022/07/31 00:39:50;;;;;;;;;;;;;;;;;;351481;28;774;-63
2022/07/31 00:40:00;;;;;;;;;;;;;;;;;;351508;28;964;-64
2022/07/31 00:40:12;;;;;;;;;;;;;;;;;;351549;28;849;-64
2022/07/31 00:40:22;;;;;;;;;;;;;;;;;;351517;28;846;-64
2022/07/31 00:40:32;;;;;;;;;;;;;;;;;;351532;28;995;-64
2022/07/31 00:40:46;;;;;;;;;;;;;;;;;;351515;28;936;-63
2022/07/31 00:40:56;;;;;;;;;;;;;;;;;;351488;27;825;-64
2022/07/31 00:41:07;;;;;;;;;;;;;;;;;;351520;28;928;-64
2022/07/31 00:41:17;;;;;;;;;;;;;;;;;;350958;28;2070;-63
2022/07/31 00:41:37;;;;;;;;;;;;;;;;;;350399;28;1553;-64
2022/07/31 00:41:48;;;;;;;;;;;;;;;;;;350117;28;925;-64
2022/07/31 00:41:58;;;;;;;;;;;;;;;;;;350116;28;924;-64
2022/07/31 00:42:21;;;;;;;;;;;;;;;;;;350111;28;1153;-63
2022/07/31 00:42:32;;;;;;;;;;;;;;;;;;350098;28;818;-64
2022/07/31 00:42:42;;;;;;;;;;;;;;;;;;350165;28;971;-63
2022/07/31 00:42:52;;;;;;;;;;;;;;;;;;350011;28;1730;-64
2022/07/31 00:43:02;;;;;;;;;;;;;;;;;;350053;28;1765;-64
2022/07/31 00:43:14;;;;;;;;;;;;;;;;;;350103;28;932;-63
2022/07/31 00:43:24;;;;;;;;;;;;;;;;;;349745;28;2039;-64
2022/07/31 00:43:34;;;;;;;;;;;;;;;;;;351785;28;1891;-64
2022/07/31 00:43:45;;;;;;;;;;;;;;;;;;352945;27;963;-64
2022/07/31 00:43:55;;;;;;;;;;;;;;;;;;352914;28;952;-64
2022/07/31 00:44:05;;;;;;;;;;;;;;;;;;352910;28;980;-64
2022/07/31 00:44:15;;;;;;;;;;;;;;;;;;352960;28;951;-64
2022/07/31 00:44:25;;;;;;;;;;;;;;;;;;352982;27;833;-64
2022/07/31 00:44:36;;;;;;;;;;;;;;;;;;352895;28;964;-64
2022/07/31 00:44:46;;;;;;;;;;;;;;;;;;352937;28;920;-64
2022/07/31 00:44:56;;;;;;;;;;;;;;;;;;352967;28;948;-63
2022/07/31 00:45:07;;;;;;;;;;;;;;;;;;352901;28;916;-64
2022/07/31 00:45:17;;;;;;;;;;;;;;;;;;352878;28;1146;-64
2022/07/31 00:45:28;;;;;;;;;;;;;;;;;;352870;28;1019;-63
2022/07/31 00:45:38;;;;;;;;;;;;;;;;;;352866;28;928;-64
2022/07/31 00:45:51;;;;;;;;;;;;;;;;;;352907;28;908;-64
2022/07/31 00:46:01;;;;;;;;;;;;;;;;;;352971;28;952;-64
2022/07/31 00:46:12;;;;;;;;;;;;;;;;;;352910;28;967;-63
2022/07/31 00:46:22;;;;;;;;;;;;;;;;;;352926;28;861;-63
2022/07/31 00:46:32;;;;;;;;;;;;;;;;;;351266;28;1573;-63
2022/07/31 00:46:43;;;;;;;;;;;;;;;;;;351362;28;1566;-64
2022/07/31 00:46:54;;;;;;;;;;;;;;;;;;351569;28;825;-64
2022/07/31 00:47:04;;;;;;;;;;;;;;;;;;351556;28;912;-64
2022/07/31 00:47:14;;;;;;;;;;;;;;;;;;351449;28;996;-63
2022/07/31 00:47:26;;;;;;;;;;;;;;;;;;351492;28;912;-64
2022/07/31 00:47:36;;;;;;;;;;;;;;;;;;351469;28;924;-63
2022/07/31 00:47:46;;;;;;;;;;;;;;;;;;351489;28;919;-63
2022/07/31 00:47:56;;;;;;;;;;;;;;;;;;351541;28;983;-63
2022/07/31 00:48:07;;;;;;;;;;;;;;;;;;351607;28;853;-63
2022/07/31 00:48:18;;;;;;;;;;;;;;;;;;351544;28;869;-64
2022/07/31 00:48:28;;;;;;;;;;;;;;;;;;351522;28;999;-63
2022/07/31 00:48:38;;;;;;;;;;;;;;;;;;351436;28;809;-63
2022/07/31 00:48:48;;;;;;;;;;;;;;;;;;351548;28;1002;-63
2022/07/31 00:48:58;;;;;;;;;;;;;;;;;;351553;28;897;-63
2022/07/31 00:49:09;;;;;;;;;;;;;;;;;;351481;28;1019;-63
2022/07/31 00:49:19;;;;;;;;;;;;;;;;;;351524;28;963;-64
2022/07/31 00:49:30;;;;;;;;;;;;;;;;;;351442;28;956;-64
2022/07/31 00:49:40;;;;;;;;;;;;;;;;;;351479;28;1015;-64
2022/07/31 00:49:50;;;;;;;;;;;;;;;;;;351494;28;1784;-63
2022/07/31 00:50:00;;;;;;;;;;;;;;;;;;351518;28;983;-64
2022/07/31 00:50:11;;;;;;;;;;;;;;;;;;351493;28;1004;-64
2022/07/31 00:50:21;;;;;;;;;;;;;;;;;;351476;28;998;-64
2022/07/31 00:50:32;;;;;;;;;;;;;;;;;;351517;28;1027;-63
2022/07/31 00:50:42;;;;;;;;;;;;;;;;;;351551;28;746;-63
2022/07/31 00:50:52;;;;;;;;;;;;;;;;;;351503;28;813;-63
2022/07/31 00:51:02;;;;;;;;;;;;;;;;;;351504;28;798;-64
2022/07/31 00:51:13;;;;;;;;;;;;;;;;;;351465;28;1003;-64
2022/07/31 00:51:23;;;;;;;;;;;;;;;;;;351516;28;924;-64
2022/07/31 00:51:33;;;;;;;;;;;;;;;;;;351545;28;932;-63
2022/07/31 00:51:43;;;;;;;;;;;;;;;;;;351424;28;1055;-63
2022/07/31 00:51:53;;;;;;;;;;;;;;;;;;351543;28;975;-63
2022/07/31 00:52:04;;;;;;;;;;;;;;;;;;351480;28;963;-64
2022/07/31 00:52:14;;;;;;;;;;;;;;;;;;351546;28;1078;-64
2022/07/31 00:52:25;;;;;;;;;;;;;;;;;;351494;28;789;-63
2022/07/31 00:52:35;;;;;;;;;;;;;;;;;;351562;28;968;-64
2022/07/31 00:52:45;;;;;;;;;;;;;;;;;;351551;28;975;-63
2022/07/31 00:52:56;;;;;;;;;;;;;;;;;;351499;28;1082;-63
2022/07/31 00:53:06;;;;;;;;;;;;;;;;;;351544;28;1004;-64
2022/07/31 00:53:16;;;;;;;;;;;;;;;;;;351501;28;934;-64
2022/07/31 00:53:26;;;;;;;;;;;;;;;;;;351453;28;1066;-63
2022/07/31 00:53:37;;;;;;;;;;;;;;;;;;351497;28;940;-64
2022/07/31 00:53:47;;;;;;;;;;;;;;;;;;351522;28;939;-63
2022/07/31 00:53:57;;;;;;;;;;;;;;;;;;351501;28;1015;-63
2022/07/31 00:54:08;;;;;;;;;;;;;;;;;;351523;28;1011;-63
2022/07/31 00:54:18;;;;;;;;;;;;;;;;;;351511;28;809;-63
2022/07/31 00:54:28;;;;;;;;;;;;;;;;;;351548;28;850;-64
2022/07/31 00:54:39;;;;;;;;;;;;;;;;;;351500;28;999;-63
2022/07/31 00:54:49;;;;;;;;;;;;;;;;;;351512;28;983;-63
2022/07/31 00:54:59;;;;;;;;;;;;;;;;;;351505;28;960;-63
2022/07/31 00:55:09;;;;;;;;;;;;;;;;;;351455;28;888;-63
2022/07/31 00:55:21;;;;;;;;;;;;;;;;;;351518;28;1008;-63
2022/07/31 00:55:31;;;;;;;;;;;;;;;;;;351485;28;848;-63
2022/07/31 00:55:41;;;;;;;;;;;;;;;;;;351529;28;908;-63
2022/07/31 00:55:52;;;;;;;;;;;;;;;;;;351434;28;1011;-63
2022/07/31 00:56:02;;;;;;;;;;;;;;;;;;351420;28;1973;-63
2022/07/31 00:56:12;;;;;;;;;;;;;;;;;;351417;28;928;-63
2022/07/31 00:56:24;;;;;;;;;;;;;;;;;;351226;28;945;-64
2022/07/31 00:56:34;;;;;;;;;;;;;;;;;;351356;28;992;-63
2022/07/31 00:56:44;;;;;;;;;;;;;;;;;;351470;28;1031;-64
2022/07/31 00:56:54;;;;;;;;;;;;;;;;;;351498;28;820;-63
2022/07/31 00:57:05;;;;;;;;;;;;;;;;;;351467;28;900;-63
2022/07/31 00:57:15;;;;;;;;;;;;;;;;;;351514;28;940;-63
2022/07/31 00:57:25;;;;;;;;;;;;;;;;;;351492;28;794;-63
2022/07/31 00:57:35;;;;;;;;;;;;;;;;;;351390;28;1307;-63
2022/07/31 00:57:46;;;;;;;;;;;;;;;;;;350209;28;1324;-63
2022/07/31 00:57:56;;;;;;;;;;;;;;;;;;350024;28;905;-64
2022/07/31 00:58:06;;;;;;;;;;;;;;;;;;350069;28;1003;-64
2022/07/31 00:58:16;;;;;;;;;;;;;;;;;;350141;28;786;-63
2022/07/31 00:58:26;;;;;;;;;;;;;;;;;;350072;28;908;-64
2022/07/31 00:58:37;;;;;;;;;;;;;;;;;;350065;28;948;-63
2022/07/31 00:58:47;;;;;;;;;;;;;;;;;;350129;28;786;-64
2022/07/31 00:58:57;;;;;;;;;;;;;;;;;;350083;28;933;-64
2022/07/31 00:59:07;;;;;;;;;;;;;;;;;;350115;28;949;-64
2022/07/31 00:59:17;;;;;;;;;;;;;;;;;;350086;28;1170;-63
2022/07/31 00:59:28;;;;;;;;;;;;;;;;;;350042;28;933;-63
2022/07/31 00:59:38;;;;;;;;;;;;;;;;;;350066;28;937;-63
2022/07/31 00:59:49;;;;;;;;;;;;;;;;;;350143;28;852;-63
2022/07/31 00:59:59;;;;;;;;;;;;;;;;;;350019;28;1012;-63
2022/07/31 01:00:09;;;;;;;;;;;;;;;;;;350011;28;1221;-63
2022/07/31 01:00:20;;;;;;;;;;;;;;;;;;350125;28;869;-63
2022/07/31 01:00:30;;;;;;;;;;;;;;;;;;350065;28;909;-64
2022/07/31 01:00:40;;;;;;;;;;;;;;;;;;350072;28;912;-63
2022/07/31 01:00:50;;;;;;;;;;;;;;;;;;350125;28;1027;-63
2022/07/31 01:01:01;;;;;;;;;;;;;;;;;;350043;28;854;-64
2022/07/31 01:01:11;;;;;;;;;;;;;;;;;;350104;28;802;-64
2022/07/31 01:01:21;;;;;;;;;;;;;;;;;;350113;28;991;-63
2022/07/31 01:01:32;;;;;;;;;;;;;;;;;;350041;28;948;-64
2022/07/31 01:01:42;;;;;;;;;;;;;;;;;;350088;28;925;-63
2022/07/31 01:01:52;;;;;;;;;;;;;;;;;;350132;28;980;-63
2022/07/31 01:02:03;;;;;;;;;;;;;;;;;;350030;28;929;-64
2022/07/31 01:02:13;;;;;;;;;;;;;;;;;;350075;28;790;-63
2022/07/31 01:02:23;;;;;;;;;;;;;;;;;;350147;28;849;-64
2022/07/31 01:02:33;;;;;;;;;;;;;;;;;;350050;28;905;-64
2022/07/31 01:02:44;;;;;;;;;;;;;;;;;;350083;28;909;-63
2022/07/31 01:02:54;;;;;;;;;;;;;;;;;;350107;28;754;-63
2022/07/31 01:03:04;;;;;;;;;;;;;;;;;;350043;28;971;-63
2022/07/31 01:03:15;;;;;;;;;;;;;;;;;;350084;28;961;-63
2022/07/31 01:03:25;;;;;;;;;;;;;;;;;;350120;28;924;-63
2022/07/31 01:03:35;;;;;;;;;;;;;;;;;;350113;28;782;-64
2022/07/31 01:03:45;;;;;;;;;;;;;;;;;;350092;28;972;-63
2022/07/31 01:03:55;;;;;;;;;;;;;;;;;;350092;28;999;-63
2022/07/31 01:04:06;;;;;;;;;;;;;;;;;;350077;28;933;-64
2022/07/31 01:04:17;;;;;;;;;;;;;;;;;;350041;28;825;-63
2022/07/31 01:04:28;;;;;;;;;;;;;;;;;;350059;28;857;-64
2022/07/31 01:04:38;;;;;;;;;;;;;;;;;;350072;28;854;-63
2022/07/31 01:04:48;;;;;;;;;;;;;;;;;;350135;28;992;-63
2022/07/31 01:04:58;;;;;;;;;;;;;;;;;;350114;28;900;-63
2022/07/31 01:05:08;;;;;;;;;;;;;;;;;;350059;28;788;-63
2022/07/31 01:05:19;;;;;;;;;;;;;;;;;;350096;28;984;-63
2022/07/31 01:05:29;;;;;;;;;;;;;;;;;;350107;28;957;-63
2022/07/31 01:05:40;;;;;;;;;;;;;;;;;;350031;28;940;-63
2022/07/31 01:05:50;;;;;;;;;;;;;;;;;;350119;28;881;-63
2022/07/31 01:06:00;;;;;;;;;;;;;;;;;;350082;28;928;-63
2022/07/31 01:06:12;;;;;;;;;;;;;;;;;;350057;28;948;-64
2022/07/31 01:06:22;;;;;;;;;;;;;;;;;;350121;28;861;-63
2022/07/31 01:06:32;;;;;;;;;;;;;;;;;;350122;28;1042;-64
2022/07/31 01:06:42;;;;;;;;;;;;;;;;;;350080;28;881;-63
2022/07/31 01:06:53;;;;;;;;;;;;;;;;;;350127;28;869;-63
2022/07/31 01:07:04;;;;;;;;;;;;;;;;;;350144;28;1043;-63
2022/07/31 01:07:14;;;;;;;;;;;;;;;;;;350085;28;965;-64
2022/07/31 01:07:24;;;;;;;;;;;;;;;;;;350098;28;936;-63
2022/07/31 01:07:34;;;;;;;;;;;;;;;;;;350131;28;940;-64
2022/07/31 01:07:45;;;;;;;;;;;;;;;;;;350032;28;929;-64
2022/07/31 01:07:56;;;;;;;;;;;;;;;;;;350101;28;972;-63
2022/07/31 01:08:06;;;;;;;;;;;;;;;;;;350144;28;810;-63
2022/07/31 01:08:16;;;;;;;;;;;;;;;;;;350112;28;880;-64
2022/07/31 01:08:26;;;;;;;;;;;;;;;;;;350069;28;960;-63
2022/07/31 01:08:36;;;;;;;;;;;;;;;;;;350029;28;948;-63
2022/07/31 01:08:47;;;;;;;;;;;;;;;;;;350097;28;983;-64
2022/07/31 01:08:57;;;;;;;;;;;;;;;;;;350099;28;940;-63
2022/07/31 01:09:07;;;;;;;;;;;;;;;;;;350141;28;837;-63
2022/07/31 01:09:17;;;;;;;;;;;;;;;;;;350067;28;979;-63
2022/07/31 01:09:28;;;;;;;;;;;;;;;;;;350123;28;986;-63
2022/07/31 01:09:38;;;;;;;;;;;;;;;;;;350083;28;1061;-63
2022/07/31 01:09:49;;;;;;;;;;;;;;;;;;350089;28;920;-63
2022/07/31 01:10:03;;;;;;;;;;;;;;;;;;350118;28;893;-63
2022/07/31 01:10:18;;;;;;;;;;;;;;;;;;350127;28;1007;-63
2022/07/31 01:10:37;;;;;;;;;;;;;;;;;;350040;28;1036;-63
2022/07/31 01:10:51;;;;;;;;;;;;;;;;;;350073;28;924;-63
2022/07/31 01:11:04;;;;;;;;;;;;;;;;;;350148;28;964;-63
2022/07/31 01:11:18;;;;;;;;;;;;;;;;;;350078;28;916;-64
2022/07/31 01:11:34;;;;;;;;;;;;;;;;;;350065;28;1487;-63
2022/07/31 01:11:47;;;;;;;;;;;;;;;;;;350126;28;971;-63
2022/07/31 01:12:02;;;;;;;;;;;;;;;;;;350036;28;990;-63
2022/07/31 01:12:19;;;;;;;;;;;;;;;;;;350162;28;980;-63
2022/07/31 01:12:38;;;;;;;;;;;;;;;;;;349837;28;1481;-64
2022/07/31 01:12:53;;;;;;;;;;;;;;;;;;350056;28;960;-64
2022/07/31 01:13:07;;;;;;;;;;;;;;;;;;350124;28;964;-64
2022/07/31 01:13:28;;;;;;;;;;;;;;;;;;350136;28;976;-63
2022/07/31 01:13:44;;;;;;;;;;;;;;;;;;350060;28;1106;-64
2022/07/31 01:13:56;;;;;;;;;;;;;;;;;;350081;28;829;-63
2022/07/31 01:14:07;;;;;;;;;;;;;;;;;;350095;28;924;-64
2022/07/31 01:14:19;;;;;;;;;;;;;;;;;;350087;28;904;-64
2022/07/31 01:14:31;;;;;;;;;;;;;;;;;;350065;28;960;-64
2022/07/31 01:14:49;;;;;;;;;;;;;;;;;;350089;28;944;-64
2022/07/31 01:15:01;;;;;;;;;;;;;;;;;;350042;28;937;-63
2022/07/31 01:15:12;;;;;;;;;;;;;;;;;;350063;28;865;-63
2022/07/31 01:15:23;;;;;;;;;;;;;;;;;;350091;28;842;-63
2022/07/31 01:15:36;;;;;;;;;;;;;;;;;;350032;28;1808;-63
2022/07/31 01:15:46;;;;;;;;;;;;;;;;;;350052;28;1055;-63
2022/07/31 01:15:58;;;;;;;;;;;;;;;;;;350059;28;936;-63
2022/07/31 01:16:10;;;;;;;;;;;;;;;;;;349976;28;1914;-63
2022/07/31 01:16:22;;;;;;;;;;;;;;;;;;350101;28;790;-63